Chippewa Falls, WI (54729)

4:26 AM CST on December 10, 2016 (GMT -0600)
Lafayette | | Change Station
Active Advisory: Winter Weather Advisory

Elev 928 ft 44.92 °N, 91.32 °W | Updated 1 minute ago

Overcast
Overcast
11.8 °F
Feels Like 12 °F
N
1.1
Wind Variable Wind from WNW

Today
High -- | Low -- °F
--% Chance of Precip.
Yesterday
High -- | Low -- °F
Precip. -- in
Pressure 30.53 in
Visibility 10.0 miles
Clouds Overcast 2600 ft
Windchill 12 °F
Dew Point 5 °F
Humidity 74%
Rainfall 0.00 in
Snow Depth Not available.
7:33 AM 4:24 PM
Waxing Gibbous, 82% visible
METAR KEAU 100956Z AUTO 26008KT 10SM OVC026 M12/M16 A3046 RMK AO2 SLP336 T11171156
Pressure 30.53 in
Visibility 10.0 miles
Clouds Overcast 2600 ft
Windchill 12 °F
Dew Point 5 °F
Humidity 74%
Rainfall 0.00 in
Snow Depth Not available.
7:33 AM 4:24 PM
Waxing Gibbous, 82% visible
METAR KEAU 100956Z AUTO 26008KT 10SM OVC026 M12/M16 A3046 RMK AO2 SLP336 T11171156

10-Day Weather Forecast

Almanac

Astronomy

Dec. 10, 2016 Rise Set
Actual Time
Civil Twilight
Nautical Twilight
Astronomical Twilight
Moon
Length of Visible Light
Length of Day
Tomorrow will be .
, % of the Moon is Illuminated

Today's Extremes

State Highs State Lows

Community

WunderPhotos

Upload Photos

1,956,536 photos uploaded!

WunderBlog® & News

Nearby

Air Quality

  Air Quality AQ Index Pollutant
Not available.

Snow Depth

Station Depth Elevation

Earthquake Activity

City Distance Mag. Time & Date
Minimum magnitude displayed is 2.5.

Coastal Water Temperatures

Place Temperature

Stations

Nearby Weather Stations

Station Location Temp. Windchill Dew Point Humidity Wind Precip. Elev Updated Type
                   

Watches & Warnings

Winter Weather Advisory
Issued: 3:22 AM CST Dec. 10, 2016 – National Weather Service

... Winter Weather Advisory in effect from 9 PM this evening to
9 PM CST Sunday...

The National Weather Service in Twin Cities/Chanhassen has issued
a Winter Weather Advisory for snow... which is in effect from 9 PM
this evening to 9 PM CST Sunday.

* Expect snow to develop around 9 PM and then diminish around 9
PM Sunday.

* The heaviest snowfall rates will occur between 6 am and noon
Sunday.

* Total snow accumulations of 4 to 7 inches are expected.

* Look for reduced visibilities at times.

* Plan on difficult driving conditions.

Precautionary/preparedness actions...

A Winter Weather Advisory for snow means periods of snow will
cause primarily travel difficulties. Be prepared for snow covered
roads and limited visibilities... and use caution while driving.
The latest Road conditions for the state you are calling from can
be obtained by calling 5 1 1.